Pagina principală
METAR-TAF:

METAR-TAF

Aeroporturi :

Suva, Fiji

Latitudine: 18-03S, longitudine: 178-34E, elevație: 5 m

Observații meteo curente

Raportul a fost făcut în urmă cu 49 de minute, la 10:00 UTC
Vânt calm
Temperatură 25°C
Umiditate 83%
Presiune 1017 hPa
Vizibilitate de 10 km sau mai mult
Nori puțini la o înălțime de 2000 picior
Nori împrăștiați la o înălțime de 4500 picior

METAR: NFNA 261000Z 00000KT 9999 FEW020 SCT045 25/22 Q1017

Ora: 22:49 (10:49 UTC)

Prognoză

Raportul a fost făcut în urmă cu 5 ore și 36 de minute, la 05:13 UTC
Prognoză valabilă de la 26 ora 06 UTC la 27 ora 06 UTC
Vânt 7 kt de la Sud-est
Vizibilitate de 10 km sau mai mult
Nori împrăștiați la o înălțime de 2000 picior

TAF: NFNA 260513Z 2606/2706 13007KT 9999 SCT020

Observații și prognoze meteo pentru peste 4.000 de aeroporturi (rapoarte METAR și TAF).

Stațiile disponibile sunt reprezentate pe hartă prin puncte galbene și roșii.

Țineți indicatorul mouse-ului pe punctul dorit pentru a vedea denumirea stației.

Apoi, faceți clic pentru a vedea observațiile și prognozele meteorologice.

Pentru a schimba harta: Pentru mărire, faceți clic pe butoanele verzi cu cruce neagră; pentru micșorare, pe butonul verde cu o liniuță; pentru hărți învecinate, pe săgețile verzi.


METAR-TAF: